Time;durP1;ratioP1;P1;durP2;ratioP2;P2;SDS_P1;SDS_P2;PMS_P1;PMS_P2;Temp;Humidity;BMP_temperature;BMP_pressure;BME280_temperature;BME280_humidity;BME280_pressure;Samples;Min_cycle;Max_cycle;Signal;HPM_P1;HPM_P2
2022/05/28 00:01:23;;;;;;;8.02;3.08;;;;;;;8.26;73.56;98176.28;5032418;28;20461;-50
2022/05/28 00:03:51;;;;;;;9.73;3.00;;;;;;;8.22;73.75;98174.09;5032167;28;20026;-51
2022/05/28 00:06:21;;;;;;;8.05;3.28;;;;;;;8.24;73.97;98175.59;5032586;28;20034;-53
2022/05/28 00:08:48;;;;;;;6.32;3.17;;;;;;;8.19;74.03;98161.88;5032206;28;20442;-53
2022/05/28 00:11:22;;;;;;;6.35;2.50;;;;;;;8.29;74.10;98164.50;5032148;28;20035;-55
2022/05/28 00:13:49;;;;;;;5.25;2.65;;;;;;;8.26;74.01;98167.47;5032103;28;20102;-50
2022/05/28 00:16:15;;;;;;;4.70;2.70;;;;;;;8.32;74.19;98166.84;5031009;28;20033;-53
2022/05/28 00:18:41;;;;;;;8.13;2.80;;;;;;;8.31;73.75;98146.50;5031470;28;20135;-52
2022/05/28 00:21:08;;;;;;;5.55;2.80;;;;;;;8.48;73.29;98156.38;5032288;28;20028;-56
2022/05/28 00:23:35;;;;;;;5.82;3.00;;;;;;;8.57;72.83;98148.47;5031974;28;20159;-55
2022/05/28 00:26:02;;;;;;;5.35;2.58;;;;;;;8.60;72.39;98137.47;5031738;28;20433;-59
2022/05/28 00:28:28;;;;;;;3.70;2.50;;;;;;;8.66;72.06;98131.53;5032276;28;20109;-54
2022/05/28 00:30:53;;;;;;;3.90;2.50;;;;;;;8.65;71.95;98131.69;5031439;28;20104;-49
2022/05/28 00:33:19;;;;;;;3.53;2.30;;;;;;;8.63;72.31;98139.00;5031946;28;20040;-51
2022/05/28 00:35:44;;;;;;;3.97;2.50;;;;;;;8.51;72.43;98122.41;5031030;28;20412;-56
2022/05/28 00:38:10;;;;;;;6.88;2.65;;;;;;;8.56;72.45;98133.44;5031541;28;20476;-51
2022/05/28 00:40:36;;;;;;;5.03;2.53;;;;;;;8.51;72.63;98130.41;5030889;28;20377;-50
2022/05/28 00:43:04;;;;;;;5.68;2.67;;;;;;;8.52;72.84;98134.75;5031647;28;20025;-57
2022/05/28 00:45:32;;;;;;;5.78;2.70;;;;;;;8.43;73.01;98137.28;5031997;28;20029;-51
2022/05/28 00:48:02;;;;;;;4.55;2.97;;;;;;;8.41;73.39;98139.28;5031329;28;20117;-54
2022/05/28 00:50:28;;;;;;;8.45;2.83;;;;;;;8.36;73.79;98125.56;5031787;28;20025;-52
2022/05/28 00:52:53;;;;;;;6.30;2.72;;;;;;;8.34;73.79;98122.22;5031313;28;20428;-57
2022/05/28 00:55:19;;;;;;;5.90;2.65;;;;;;;8.33;74.10;98128.53;5030748;28;20123;-53
2022/05/28 00:57:46;;;;;;;5.82;2.78;;;;;;;8.29;74.09;98122.66;5031266;28;20038;-55
2022/05/28 01:00:16;;;;;;;5.63;2.78;;;;;;;8.38;73.93;98117.41;5031083;28;20045;-51
2022/05/28 01:02:59;;;;;;;8.93;2.85;;;;;;;8.41;73.97;98111.78;5031145;28;20435;-51
2022/05/28 01:05:34;;;;;;;10.10;3.10;;;;;;;8.45;73.70;98114.00;5030573;28;20469;-53
2022/05/28 01:08:00;;;;;;;;;;;;;;;8.76;72.90;98112.75;5031758;28;20123;-53
2022/05/28 01:10:40;;;;;;;10.50;3.10;;;;;;;8.70;72.75;98118.72;5031290;28;20349;-56
2022/05/28 01:13:29;;;;;;;5.55;2.90;;;;;;;8.66;72.93;98110.19;5030882;28;20139;-55
2022/05/28 01:16:03;;;;;;;6.30;3.17;;;;;;;8.82;72.57;98112.16;5008120;28;20075;-51
2022/05/28 01:18:28;;;;;;;5.53;3.35;;;;;;;8.87;71.68;98104.53;5011650;28;20038;-51
2022/05/28 01:20:59;;;;;;;5.75;2.80;;;;;;;8.99;71.18;98109.59;5027020;28;20390;-54
2022/05/28 01:23:43;;;;;;;5.93;2.97;;;;;;;9.01;70.41;98099.59;5030682;28;20029;-55
2022/05/28 01:26:23;;;;;;;5.38;2.33;;;;;;;9.13;70.28;98111.72;5030705;28;20064;-56
2022/05/28 01:28:55;;;;;;;8.65;2.53;;;;;;;9.21;70.01;98110.94;5030623;28;20025;-53
2022/05/28 01:31:24;;;;;;;5.15;2.53;;;;;;;9.25;69.71;98101.59;5030417;28;20033;-55
2022/05/28 01:33:51;;;;;;;6.68;2.70;;;;;;;9.28;69.50;98092.41;5031128;28;20471;-52
2022/05/28 01:36:18;;;;;;;3.45;2.58;;;;;;;9.38;69.08;98097.66;5030459;28;20037;-55
2022/05/28 01:38:46;;;;;;;6.47;2.47;;;;;;;9.44;68.91;98102.38;5030430;28;20115;-53
2022/05/28 01:41:13;;;;;;;7.28;3.15;;;;;;;9.47;68.72;98097.53;5030410;28;20030;-49
2022/05/28 01:43:42;;;;;;;3.97;2.47;;;;;;;9.55;68.06;98091.41;5030302;28;20116;-52
2022/05/28 01:46:11;;;;;;;7.22;2.90;;;;;;;9.58;67.89;98083.06;5029214;28;20029;-53
2022/05/28 01:48:39;;;;;;;5.38;2.78;;;;;;;9.67;67.78;98091.13;5030547;28;20353;-53
2022/05/28 01:51:07;;;;;;;5.65;2.47;;;;;;;9.77;67.39;98084.66;5030891;28;20025;-52
2022/05/28 01:56:21;;;;;;;6.80;3.05;;;;;;;9.96;67.10;98090.69;5030318;28;20049;-53
2022/05/28 01:58:47;;;;;;;8.07;2.97;;;;;;;9.98;66.87;98083.34;5029846;28;20382;-51
2022/05/28 02:01:13;;;;;;;7.32;3.08;;;;;;;9.98;66.68;98069.16;5030875;28;20025;-56
2022/05/28 02:03:43;;;;;;;3.90;2.70;;;;;;;10.09;66.85;98076.03;5030535;28;20029;-55
2022/05/28 02:06:08;;;;;;;4.03;2.78;;;;;;;10.07;66.48;98075.38;5030813;28;20099;-50
2022/05/28 02:08:40;;;;;;;8.27;3.03;;;;;;;9.95;66.44;98037.41;5033809;28;20428;-52
2022/05/28 02:11:11;;;;;;;6.20;2.88;;;;;;;10.08;66.73;98067.16;5034658;28;20059;-51
2022/05/28 02:14:09;;;;;;;5.72;2.88;;;;;;;10.24;66.54;98069.03;5034634;28;20091;-57
2022/05/28 02:16:54;;;;;;;4.97;2.35;;;;;;;10.27;66.41;98065.19;5032621;28;20049;-53
2022/05/28 02:19:33;;;;;;;6.45;2.80;;;;;;;10.29;65.93;98041.78;5014857;28;20038;-54
2022/05/28 02:22:33;;;;;;;6.63;2.60;;;;;;;10.53;65.78;98046.38;5014930;28;20109;-54
2022/05/28 02:25:06;;;;;;;8.80;3.25;;;;;;;10.68;65.14;98046.53;5018027;28;20041;-55
2022/05/28 02:27:34;;;;;;;5.82;2.92;;;;;;;10.78;64.34;98011.53;5034008;28;20030;-51
2022/05/28 02:30:01;;;;;;;9.20;2.75;;;;;;;11.22;63.39;98038.91;5034378;28;20385;-54
2022/05/28 02:32:26;;;;;;;7.57;2.72;;;;;;;11.48;62.55;98041.28;5034032;28;20083;-53
2022/05/28 02:34:52;;;;;;;4.32;2.65;;;;;;;11.63;62.01;98028.84;5033911;28;20029;-52
2022/05/28 02:37:22;;;;;;;8.85;2.63;;;;;;;11.81;61.70;98033.09;5033517;28;20041;-53
2022/05/28 02:39:48;;;;;;;7.13;2.80;;;;;;;11.98;60.96;98030.31;5034118;28;20460;-55
2022/05/28 02:42:14;;;;;;;6.53;2.47;;;;;;;12.17;60.19;98023.66;5033906;28;20075;-53
2022/05/28 02:44:39;;;;;;;9.27;3.05;;;;;;;12.49;59.54;98036.00;5033488;28;20041;-53
2022/05/28 02:47:05;;;;;;;9.48;2.50;;;;;;;12.77;58.74;98039.97;5033911;28;20120;-55
2022/05/28 02:49:31;;;;;;;4.47;2.42;;;;;;;13.01;57.76;98044.25;5033997;28;20441;-53
2022/05/28 02:52:00;;;;;;;6.10;2.40;;;;;;;13.18;57.57;98041.41;5033621;28;20033;-53
2022/05/28 02:54:26;;;;;;;5.93;2.47;;;;;;;13.22;56.91;98040.00;5033451;28;20041;-53
2022/05/28 02:56:51;;;;;;;4.68;2.38;;;;;;;13.17;57.11;98045.13;5033011;28;20052;-55
2022/05/28 02:59:17;;;;;;;10.57;2.80;;;;;;;13.12;57.15;98042.16;5033594;28;20079;-53
2022/05/28 03:01:42;;;;;;;2.30;2.03;;;;;;;13.09;57.16;98037.16;5033094;28;20025;-53
2022/05/28 03:04:08;;;;;;;6.20;2.80;;;;;;;13.14;57.29;98042.81;5032728;28;20037;-50
2022/05/28 03:06:35;;;;;;;7.95;2.40;;;;;;;13.22;56.90;98048.06;5033495;28;20060;-54
2022/05/28 03:09:02;;;;;;;9.82;2.60;;;;;;;13.36;56.70;98038.34;5033264;28;20469;-57
2022/05/28 03:11:27;;;;;;;4.90;2.50;;;;;;;13.52;56.38;98029.31;5033544;28;20037;-50
2022/05/28 03:13:53;;;;;;;4.88;2.50;;;;;;;13.68;55.80;98028.25;5033155;28;20449;-51
2022/05/28 03:16:18;;;;;;;6.30;2.47;;;;;;;13.84;55.58;98029.88;5032718;28;20124;-52
2022/05/28 03:18:44;;;;;;;4.45;2.63;;;;;;;14.10;54.54;98023.13;5032722;28;20079;-55
2022/05/28 03:21:09;;;;;;;7.72;2.80;;;;;;;14.20;54.04;98020.94;5033514;28;20381;-53
2022/05/28 03:23:35;;;;;;;6.80;2.97;;;;;;;14.27;53.83;98015.63;5033058;28;20095;-54
2022/05/28 03:26:30;;;;;;;9.27;2.90;;;;;;;14.52;54.46;98009.03;5032984;28;20140;-50
2022/05/28 03:28:56;;;;;;;6.43;2.10;;;;;;;14.45;52.74;98008.97;5012448;28;20053;-55
2022/05/28 03:31:23;;;;;;;7.80;2.40;;;;;;;14.52;52.72;97998.25;5013100;28;20030;-55
2022/05/28 03:33:50;;;;;;;5.22;2.53;;;;;;;14.61;52.27;97999.78;5030015;28;20051;-54
2022/05/28 03:36:16;;;;;;;8.30;2.42;;;;;;;14.66;52.16;98008.09;5033202;28;20120;-54
2022/05/28 03:38:43;;;;;;;10.95;2.58;;;;;;;14.64;52.50;98007.44;5032925;28;20045;-56
2022/05/28 03:41:09;;;;;;;8.80;2.55;;;;;;;14.65;52.24;97998.34;5032622;28;20026;-55
2022/05/28 03:43:35;;;;;;;4.78;2.42;;;;;;;15.12;51.57;98014.03;5032635;28;20039;-54
2022/05/28 03:46:01;;;;;;;12.60;2.78;;;;;;;16.16;48.74;98001.41;5033138;28;20034;-54
2022/05/28 03:48:28;;;;;;;4.53;2.50;;;;;;;17.50;45.70;98015.88;5032348;28;20468;-54
2022/05/28 03:50:53;;;;;;;5.55;2.72;;;;;;;18.80;42.47;98007.59;5032683;28;20056;-51
2022/05/28 03:53:19;;;;;;;6.95;2.58;;;;;;;19.96;39.75;98002.63;5032131;28;20029;-51
2022/05/28 03:55:45;;;;;;;4.45;2.42;;;;;;;21.20;37.10;98002.94;5032618;28;20107;-54
2022/05/28 03:58:11;;;;;;;3.20;2.28;;;;;;;22.17;35.24;98006.03;5032948;28;20434;-54
2022/05/28 04:00:37;;;;;;;4.65;2.55;;;;;;;22.37;34.20;97996.56;5032030;28;20033;-52
2022/05/28 04:03:03;;;;;;;6.70;2.42;;;;;;;21.85;34.76;97998.34;5031933;28;20199;-53
2022/05/28 04:05:29;;;;;;;11.00;2.40;;;;;;;21.39;35.72;97995.50;5032469;28;20025;-54
2022/05/28 04:07:54;;;;;;;3.78;2.42;;;;;;;21.01;36.53;97989.50;5032415;28;20343;-53
2022/05/28 04:10:20;;;;;;;5.03;2.53;;;;;;;20.82;36.93;97990.69;5031523;28;20037;-53
2022/05/28 04:12:46;;;;;;;5.25;2.50;;;;;;;20.62;37.11;97980.94;5032230;28;20036;-55
2022/05/28 04:15:12;;;;;;;5.70;2.47;;;;;;;20.43;37.85;97972.88;5032549;28;20029;-50
2022/05/28 04:17:38;;;;;;;9.32;2.90;;;;;;;20.35;37.98;97990.34;5032420;28;20030;-52
2022/05/28 04:20:06;;;;;;;5.93;2.45;;;;;;;19.97;39.36;97985.25;5031850;28;20144;-52
2022/05/28 04:22:31;;;;;;;5.20;2.83;;;;;;;19.42;40.36;97979.69;5031744;28;20578;-55
2022/05/28 04:24:56;;;;;;;6.88;2.83;;;;;;;18.92;41.24;97975.16;5032130;28;20124;-54
2022/05/28 04:27:22;;;;;;;5.45;2.50;;;;;;;18.43;42.80;97967.69;5031788;28;20030;-52
2022/05/28 04:29:47;;;;;;;4.60;2.95;;;;;;;18.16;43.33;97978.72;5030465;28;20474;-51
2022/05/28 04:32:13;;;;;;;5.45;2.92;;;;;;;17.89;43.97;97984.28;5031898;28;20025;-53
2022/05/28 04:34:38;;;;;;;8.40;2.97;;;;;;;17.53;44.78;97979.44;5031861;28;20037;-54
2022/05/28 04:37:04;;;;;;;7.20;3.17;;;;;;;17.40;45.17;97977.63;5031837;28;20382;-53
2022/05/28 04:39:30;;;;;;;5.53;3.33;;;;;;;17.70;44.69;97979.78;5031184;28;20045;-53
2022/05/28 04:41:56;;;;;;;9.05;3.15;;;;;;;18.33;43.67;97976.31;5031506;28;20440;-54
2022/05/28 04:44:21;;;;;;;6.95;3.20;;;;;;;19.72;40.44;97981.59;5031863;28;20030;-50
2022/05/28 04:46:47;;;;;;;7.15;3.40;;;;;;;21.29;37.17;97979.78;5031296;28;20432;-54
2022/05/28 04:49:12;;;;;;;6.90;3.10;;;;;;;22.20;34.92;97951.03;5031270;28;20117;-51
2022/05/28 04:51:37;;;;;;;7.57;3.13;;;;;;;24.26;31.75;97972.38;5031380;28;20083;-54
2022/05/28 04:54:03;;;;;;;6.53;3.00;;;;;;;26.31;28.55;97973.78;5031494;28;20087;-52
2022/05/28 04:56:29;;;;;;;6.78;2.88;;;;;;;27.92;25.71;97970.72;5031035;28;20045;-53
2022/05/28 04:58:54;;;;;;;7.20;3.38;;;;;;;28.24;24.99;97968.63;5030949;28;20045;-52
2022/05/28 05:01:22;;;;;;;6.80;3.03;;;;;;;27.22;26.46;97972.34;5031039;28;20185;-51
2022/05/28 05:03:48;;;;;;;12.82;3.10;;;;;;;26.35;27.35;97987.78;5031009;28;20068;-51
2022/05/28 05:06:13;;;;;;;10.27;3.03;;;;;;;25.84;28.25;97972.84;5031361;28;20084;-55
2022/05/28 05:08:39;;;;;;;7.00;2.97;;;;;;;25.23;29.13;97974.19;5031558;28;20077;-57
2022/05/28 05:11:04;;;;;;;5.88;2.85;;;;;;;24.56;30.05;97979.19;5031150;28;20041;-53
2022/05/28 05:13:30;;;;;;;4.53;2.70;;;;;;;23.78;31.13;97982.00;5030792;28;20033;-51
2022/05/28 05:15:55;;;;;;;9.75;2.80;;;;;;;22.84;32.73;97972.78;5031441;28;20449;-49
2022/05/28 05:18:21;;;;;;;5.90;2.40;;;;;;;21.88;34.07;97983.44;5030848;28;20030;-54
2022/05/28 05:20:47;;;;;;;7.25;3.15;;;;;;;20.93;35.93;97976.25;5031063;28;20029;-51
2022/05/28 05:23:13;;;;;;;4.68;2.60;;;;;;;20.06;37.78;97983.91;5031563;28;20037;-53
2022/05/28 05:25:38;;;;;;;4.93;2.65;;;;;;;19.08;39.12;97979.22;5030834;28;20083;-53
2022/05/28 05:28:04;;;;;;;6.82;2.97;;;;;;;18.36;41.27;97972.34;5030762;28;20117;-53
2022/05/28 05:30:29;;;;;;;5.25;2.10;;;;;;;17.74;42.25;97991.84;5030924;28;20040;-51
2022/05/28 05:32:55;;;;;;;6.00;2.15;;;;;;;17.25;43.22;97984.13;5029632;28;20376;-53
2022/05/28 05:35:21;;;;;;;4.47;2.10;;;;;;;16.82;44.24;97990.00;5030873;28;20038;-53
2022/05/28 05:37:47;;;;;;;3.67;2.10;;;;;;;16.52;45.15;97993.97;5030727;28;20037;-52
2022/05/28 05:40:13;;;;;;;3.25;1.90;;;;;;;16.22;45.49;97991.63;5030749;28;20037;-52
2022/05/28 05:42:38;;;;;;;8.50;2.15;;;;;;;16.03;46.03;97987.88;5030961;28;20802;-53
2022/05/28 05:45:04;;;;;;;5.68;1.85;;;;;;;15.97;46.48;97977.91;5029232;28;20036;-55
2022/05/28 05:47:30;;;;;;;3.63;1.77;;;;;;;15.90;46.59;97978.69;5030453;28;20056;-54
2022/05/28 05:49:55;;;;;;;3.13;1.95;;;;;;;15.88;45.94;97988.03;5030456;28;20034;-54
2022/05/28 05:52:21;;;;;;;5.68;1.95;;;;;;;15.76;46.25;97982.38;5031186;28;20092;-53
2022/05/28 05:54:46;;;;;;;3.03;2.05;;;;;;;15.68;47.30;97982.59;5030838;28;20025;-55
2022/05/28 05:57:12;;;;;;;10.55;2.22;;;;;;;15.53;48.12;97980.00;5030146;28;20053;-54
2022/05/28 05:59:38;;;;;;;6.72;2.25;;;;;;;15.38;48.37;97988.25;5030465;28;20429;-54
2022/05/28 06:02:03;;;;;;;6.50;2.50;;;;;;;15.06;48.77;97970.69;5030941;28;20060;-54
2022/05/28 06:04:29;;;;;;;7.55;2.13;;;;;;;14.98;48.79;97995.09;5029998;28;20037;-55
2022/05/28 06:06:54;;;;;;;4.47;2.10;;;;;;;14.72;49.82;98010.06;5030251;28;20033;-53
2022/05/28 06:09:20;;;;;;;7.03;1.83;;;;;;;14.49;50.40;97997.63;5030818;28;20396;-60
2022/05/28 06:11:45;;;;;;;4.80;2.22;;;;;;;14.31;51.29;97999.94;5030682;28;20060;-55
2022/05/28 06:14:11;;;;;;;3.33;2.13;;;;;;;14.17;51.55;98007.06;5030692;28;20037;-52
2022/05/28 06:16:36;;;;;;;5.22;2.20;;;;;;;14.06;51.82;98003.00;5030183;28;20030;-55
2022/05/28 06:19:04;;;;;;;3.60;2.10;;;;;;;14.01;52.60;98008.13;5030356;28;20037;-54
2022/05/28 06:21:30;;;;;;;4.32;2.58;;;;;;;13.95;53.15;98014.25;5030785;28;20111;-51
2022/05/28 06:23:55;;;;;;;7.13;2.15;;;;;;;13.93;52.87;98011.78;5030233;28;20076;-52
2022/05/28 06:26:20;;;;;;;3.47;2.33;;;;;;;13.80;53.35;97980.19;5030352;28;20050;-57
2022/05/28 06:28:46;;;;;;;8.73;2.78;;;;;;;13.99;53.41;98004.81;5030519;28;20048;-52
2022/05/28 06:31:13;;;;;;;3.97;2.00;;;;;;;14.02;52.67;98010.63;5029425;28;20109;-51
2022/05/28 06:33:40;;;;;;;3.70;2.25;;;;;;;14.05;53.23;98015.63;5029943;28;20038;-53
2022/05/28 06:36:08;;;;;;;5.90;2.22;;;;;;;14.04;52.93;98015.81;5030391;28;20036;-54
2022/05/28 06:38:34;;;;;;;4.40;2.25;;;;;;;13.99;53.19;98015.56;5030261;28;20112;-52
2022/05/28 06:41:00;;;;;;;4.65;2.17;;;;;;;14.02;52.85;98015.19;5029431;28;20038;-52
2022/05/28 06:43:26;;;;;;;7.47;2.30;;;;;;;13.95;53.55;98017.81;5030032;28;20499;-52
2022/05/28 06:45:53;;;;;;;4.85;2.20;;;;;;;13.91;53.69;98020.03;5028894;28;20029;-59
2022/05/28 06:48:19;;;;;;;6.13;2.13;;;;;;;13.96;53.33;98021.31;5030184;28;20121;-53
2022/05/28 06:51:03;;;;;;;10.32;2.20;;;;;;;13.96;53.51;98008.69;5029325;28;20163;-54
2022/05/28 06:53:31;;;;;;;5.32;2.05;;;;;;;14.12;52.70;98026.47;5032817;28;20041;-54
2022/05/28 06:55:57;;;;;;;4.30;1.85;;;;;;;14.15;52.36;98026.06;5033488;28;20049;-52
2022/05/28 06:58:23;;;;;;;6.07;2.20;;;;;;;14.19;52.37;98021.16;5033832;28;20049;-54
2022/05/28 07:00:48;;;;;;;8.93;2.20;;;;;;;14.24;52.44;98023.28;5033223;28;20452;-52
2022/05/28 07:03:20;;;;;;;8.07;2.03;;;;;;;14.29;52.17;98021.66;5033711;28;20120;-56
2022/05/28 07:05:46;;;;;;;3.97;1.92;;;;;;;14.20;52.09;98017.44;5033108;28;20052;-58
2022/05/28 07:08:11;;;;;;;4.07;1.98;;;;;;;14.26;52.47;98023.91;5033184;28;20025;-58
2022/05/28 07:10:42;;;;;;;3.47;1.98;;;;;;;14.45;51.60;98028.63;5033336;28;20469;-58
2022/05/28 07:13:09;;;;;;;3.30;1.60;;;;;;;14.48;51.35;98022.03;5033889;28;20053;-61
2022/05/28 07:15:34;;;;;;;3.10;1.75;;;;;;;14.59;50.58;98021.53;5047868;28;20050;-56
2022/05/28 07:18:00;;;;;;;7.20;1.88;;;;;;;14.74;50.58;98029.53;5033462;28;20026;-55
2022/05/28 07:20:25;;;;;;;6.68;1.70;;;;;;;14.84;49.42;98033.75;5032996;28;20385;-54
2022/05/28 07:22:51;;;;;;;5.40;1.70;;;;;;;14.90;49.05;98033.81;5033360;28;20048;-55
2022/05/28 07:25:16;;;;;;;3.85;1.80;;;;;;;14.91;49.10;98035.47;5031015;28;21127;-52
2022/05/28 07:27:42;;;;;;;4.57;1.55;;;;;;;14.94;49.19;98034.22;5032551;28;20385;-62
2022/05/28 07:30:08;;;;;;;7.22;1.70;;;;;;;15.00;49.03;98040.69;5031726;28;20116;-58
2022/05/28 07:32:33;;;;;;;4.82;2.00;;;;;;;15.00;48.77;98021.84;5030341;28;20034;-56
2022/05/28 07:34:59;;;;;;;3.25;1.67;;;;;;;15.34;48.40;98039.06;5029622;28;20044;-60
2022/05/28 07:37:29;;;;;;;8.25;3.17;;;;;;;15.57;47.95;98044.16;5032842;28;20034;-60
2022/05/28 07:39:54;;;;;;;7.07;2.13;;;;;;;15.73;47.68;98048.38;5032151;28;20080;-58
2022/05/28 07:42:20;;;;;;;4.43;1.95;;;;;;;15.76;47.25;98041.75;5032517;28;20088;-64
2022/05/28 07:44:45;;;;;;;4.53;2.30;;;;;;;15.96;47.21;98047.25;5029576;28;20381;-60
2022/05/28 07:47:11;;;;;;;4.18;2.40;;;;;;;15.98;47.15;98047.03;5024985;28;20079;-60
2022/05/28 07:49:38;;;;;;;5.13;2.78;;;;;;;16.12;46.48;98054.13;5022381;28;20041;-58
2022/05/28 07:52:04;;;;;;;4.03;2.08;;;;;;;16.13;46.92;98063.91;5031742;28;20103;-56
2022/05/28 07:54:30;;;;;;;4.28;2.42;;;;;;;16.12;46.89;98066.81;5032069;28;20056;-59
2022/05/28 07:56:56;;;;;;;6.15;2.67;;;;;;;16.01;47.19;98070.94;5030635;28;20465;-60
2022/05/28 07:59:21;;;;;;;6.28;2.55;;;;;;;15.90;47.86;98070.47;5030710;28;20033;-56
2022/05/28 08:01:47;;;;;;;8.68;2.33;;;;;;;15.76;48.25;98074.13;5031475;28;20059;-55
2022/05/28 08:04:13;;;;;;;4.82;2.50;;;;;;;15.63;48.64;98073.00;5031712;28;20033;-60
2022/05/28 08:06:40;;;;;;;9.88;3.25;;;;;;;15.56;49.03;98082.94;5031456;28;20401;-59
2022/05/28 08:09:07;;;;;;;5.53;3.08;;;;;;;15.55;48.99;98089.38;5031996;28;20120;-54
2022/05/28 08:11:33;;;;;;;3.20;2.05;;;;;;;15.42;48.93;98086.59;5031044;28;20034;-58
2022/05/28 08:13:58;;;;;;;6.03;2.53;;;;;;;15.31;49.05;98085.28;5030172;28;20033;-56
2022/05/28 08:16:24;;;;;;;4.75;2.55;;;;;;;15.25;49.68;98095.00;5032417;28;20428;-56
2022/05/28 08:18:50;;;;;;;6.93;2.40;;;;;;;15.29;50.08;98088.19;5029643;28;20099;-59
2022/05/28 08:24:00;;;;;;;5.85;2.80;;;;;;;15.64;49.03;98095.44;5030440;28;20115;-59
2022/05/28 08:26:25;;;;;;;4.55;2.35;;;;;;;15.84;48.56;98097.41;5031448;28;20443;-59
2022/05/28 08:28:53;;;;;;;3.25;2.30;;;;;;;16.02;48.11;98104.97;5031425;28;20035;-53
2022/05/28 08:31:20;;;;;;;6.68;3.20;;;;;;;16.23;47.90;98109.41;5030977;28;20025;-58
2022/05/28 08:33:46;;;;;;;4.82;2.60;;;;;;;16.55;46.53;98103.47;5031454;28;20025;-51
2022/05/28 08:36:12;;;;;;;6.57;2.80;;;;;;;16.84;45.14;98101.41;5030783;28;20547;-53
2022/05/28 08:38:39;;;;;;;4.72;2.40;;;;;;;17.18;43.59;98113.09;5028489;28;20504;-61
2022/05/28 08:41:15;;;;;;;4.50;2.08;;;;;;;17.51;43.51;98112.22;5031508;28;20091;-53
2022/05/28 08:44:08;;;;;;;2.67;1.88;;;;;;;17.75;43.57;98123.41;5029810;28;20072;-54
2022/05/28 08:46:36;;;;;;;3.42;1.92;;;;;;;17.66;42.77;98120.09;5011450;28;20605;-55
2022/05/28 08:49:04;;;;;;;4.38;2.17;;;;;;;17.59;43.56;98120.09;5018559;28;20033;-56
2022/05/28 08:51:46;;;;;;;6.97;2.20;;;;;;;17.58;43.54;98099.50;5031592;28;20048;-55
2022/05/28 08:54:56;;;;;;;3.60;2.20;;;;;;;17.79;43.61;98125.50;5029600;28;20061;-58
2022/05/28 08:57:28;;;;;;;3.95;1.90;;;;;;;17.50;43.33;98121.38;5026927;28;20053;-55
2022/05/28 08:59:59;;;;;;;3.95;2.50;;;;;;;17.30;43.90;98127.66;5030930;28;20080;-55
2022/05/28 09:02:50;;;;;;;5.13;2.65;;;;;;;17.32;44.30;98132.84;5030708;28;20045;-61
2022/05/28 09:05:25;;;;;;;5.10;2.15;;;;;;;17.05;44.54;98130.97;5027286;28;20111;-60
2022/05/28 09:07:53;;;;;;;2.80;2.25;;;;;;;16.65;45.47;98126.34;5030632;28;20033;-55
2022/05/28 09:10:19;;;;;;;6.68;2.63;;;;;;;16.09;46.36;98107.72;5030790;28;20064;-57
2022/05/28 09:12:51;;;;;;;5.05;2.30;;;;;;;16.02;47.63;98143.59;5030797;28;20033;-54
2022/05/28 09:15:16;;;;;;;3.30;1.67;;;;;;;15.82;47.36;98143.47;5015391;28;20041;-55
2022/05/28 09:17:47;;;;;;;3.53;1.77;;;;;;;15.59;47.64;98149.16;5030686;28;20033;-56
2022/05/28 09:20:17;;;;;;;4.97;2.00;;;;;;;15.25;50.35;98156.16;5030507;28;20084;-55
2022/05/28 09:22:42;;;;;;;4.15;2.05;;;;;;;14.76;52.31;98170.25;5030933;28;20033;-55
2022/05/28 09:25:10;;;;;;;4.68;2.20;;;;;;;14.29;56.04;98166.19;5030323;28;20391;-56
2022/05/28 09:27:47;;;;;;;8.50;2.38;;;;;;;14.07;55.72;98168.81;5026989;28;20089;-56
2022/05/28 09:30:34;;;;;;;6.50;2.33;;;;;;;13.88;58.80;98176.44;5029679;28;20634;-54
2022/05/28 09:33:24;;;;;;;4.90;2.38;;;;;;;13.71;59.15;98177.63;5030442;28;20029;-55
2022/05/28 09:36:13;;;;;;;9.80;2.90;;;;;;;13.76;58.89;98181.44;5030265;28;20037;-55
2022/05/28 09:39:01;;;;;;;6.65;2.78;;;;;;;13.93;59.02;98187.47;5029725;28;20473;-55
2022/05/28 09:41:39;;;;;;;10.15;2.72;;;;;;;14.26;57.94;98185.41;5030679;28;20512;-58
2022/05/28 09:44:29;;;;;;;3.85;2.50;;;;;;;14.99;56.09;98188.09;5030311;28;20107;-53
2022/05/28 09:47:06;;;;;;;6.30;2.88;;;;;;;15.75;55.84;98178.50;5030152;28;20039;-56
2022/05/28 09:49:32;;;;;;;4.40;2.58;;;;;;;16.20;52.85;98161.97;5030080;28;20426;-59
2022/05/28 09:52:07;;;;;;;7.70;2.88;;;;;;;16.95;52.33;98190.03;5030712;28;20048;-55
2022/05/28 09:54:34;;;;;;;8.05;2.97;;;;;;;17.19;50.76;98191.31;5030332;28;20033;-58
2022/05/28 09:57:10;;;;;;;5.40;3.00;;;;;;;17.39;51.13;98200.50;5030546;28;20060;-56
2022/05/28 09:59:46;;;;;;;6.82;3.30;;;;;;;17.43;49.91;98196.31;5029319;28;20125;-56
2022/05/28 10:02:40;;;;;;;6.07;3.17;;;;;;;17.58;50.04;98186.09;5024191;28;20045;-53
2022/05/28 10:05:13;;;;;;;5.93;3.05;;;;;;;17.77;49.07;98197.09;5023157;28;20049;-55
2022/05/28 10:07:48;;;;;;;3.88;3.47;;;;;;;17.92;49.52;98208.53;5029812;28;20041;-57
2022/05/28 10:10:26;;;;;;;;;;;;;;;18.47;47.76;98204.63;5030672;28;20393;-53
2022/05/28 10:12:52;;;;;;;6.10;3.13;;;;;;;17.91;48.51;98215.00;5062518;28;19928;-55
2022/05/28 10:15:28;;;;;;;5.72;3.47;;;;;;;17.64;48.90;98215.03;5029516;28;20033;-53
2022/05/28 10:17:59;;;;;;;5.22;3.38;;;;;;;17.36;49.07;98224.22;5029976;28;20037;-56
2022/05/28 10:20:26;;;;;;;12.60;3.20;;;;;;;16.93;49.44;98197.50;5029924;28;20064;-55
2022/05/28 10:22:54;;;;;;;6.43;2.92;;;;;;;16.93;50.13;98227.25;5029870;28;20388;-58
2022/05/28 10:25:41;;;;;;;4.13;2.67;;;;;;;16.96;50.27;98231.38;5029317;28;20033;-53
2022/05/28 10:28:08;;;;;;;5.85;2.88;;;;;;;17.12;49.12;98233.75;5032137;28;20041;-55
2022/05/28 10:30:36;;;;;;;7.65;3.15;;;;;;;17.34;49.06;98228.97;5033645;28;20098;-61
2022/05/28 10:33:13;;;;;;;9.20;3.22;;;;;;;17.55;48.06;98204.63;5034107;28;20469;-55
2022/05/28 10:35:39;;;;;;;5.10;3.35;;;;;;;17.70;47.45;98239.59;5033363;28;20029;-57
2022/05/28 10:38:10;;;;;;;6.82;3.35;;;;;;;17.79;46.77;98222.09;5033175;28;20129;-61
2022/05/28 10:40:47;;;;;;;6.22;2.97;;;;;;;17.75;47.34;98237.94;5033281;28;20462;-57
2022/05/28 10:43:21;;;;;;;6.07;2.80;;;;;;;17.67;47.41;98202.13;5033128;28;20030;-54
2022/05/28 10:45:55;;;;;;;6.18;3.03;;;;;;;17.91;46.91;98236.66;5033002;28;20117;-57
2022/05/28 10:48:57;;;;;;;6.80;2.80;;;;;;;18.28;46.31;98233.47;5033516;28;20052;-55
2022/05/28 10:51:49;;;;;;;5.45;2.70;;;;;;;18.51;45.90;98230.25;5028621;28;20405;-56
2022/05/28 10:54:33;;;;;;;4.95;2.97;;;;;;;18.65;45.12;98230.22;5033211;28;20029;-60
2022/05/28 10:57:29;;;;;;;7.20;2.85;;;;;;;18.88;45.41;98221.53;5016330;28;20088;-57
2022/05/28 11:00:07;;;;;;;3.75;2.90;;;;;;;19.11;43.63;98220.16;5025827;28;20049;-54
2022/05/28 11:02:51;;;;;;;6.90;2.20;;;;;;;19.57;42.66;98222.75;5033739;28;20159;-55
2022/05/28 11:05:17;;;;;;;2.08;1.65;;;;;;;19.58;39.57;98227.97;5032830;28;20088;-58
2022/05/28 11:07:48;;;;;;;2.40;1.50;;;;;;;19.48;37.87;98222.19;5032903;28;20041;-57
2022/05/28 11:10:44;;;;;;;6.38;1.45;;;;;;;19.59;39.27;98231.50;5032456;28;20128;-58
2022/05/28 11:13:18;;;;;;;1.88;1.60;;;;;;;19.60;38.72;98236.72;5031818;28;20045;-57
2022/05/28 11:16:03;;;;;;;4.50;1.83;;;;;;;19.69;38.14;98228.28;5030848;28;20452;-52
2022/05/28 11:18:48;;;;;;;7.28;1.50;;;;;;;20.00;38.26;98229.25;5032992;28;20449;-58
2022/05/28 11:21:32;;;;;;;3.67;1.50;;;;;;;20.06;37.02;98222.94;5032623;28;20037;-56
2022/05/28 11:24:41;;;;;;;4.45;1.58;;;;;;;20.14;37.10;98219.91;5032628;28;20043;-55
2022/05/28 11:27:25;;;;;;;2.47;1.35;;;;;;;20.22;36.47;98224.22;5021675;28;20039;-57
2022/05/28 11:30:04;;;;;;;4.40;1.55;;;;;;;20.39;37.23;98227.16;5033063;28;20045;-56
2022/05/28 11:32:36;;;;;;;4.03;1.30;;;;;;;20.33;35.29;98226.19;5014790;28;20029;-58
2022/05/28 11:35:13;;;;;;;3.58;1.15;;;;;;;20.18;34.91;98229.28;5032766;28;20033;-57
2022/05/28 11:37:52;;;;;;;2.65;1.17;;;;;;;20.18;35.94;98233.91;5030902;28;20389;-58
2022/05/28 11:40:45;;;;;;;3.47;1.20;;;;;;;20.28;36.93;98230.66;5017582;28;20033;-57
2022/05/28 11:43:15;;;;;;;4.20;1.50;;;;;;;20.05;34.81;98232.97;5032986;28;20053;-56
2022/05/28 11:46:08;;;;;;;6.30;1.05;;;;;;;19.76;36.28;98235.31;5031438;28;20034;-57
2022/05/28 11:51:35;;;;;;;3.35;1.40;;;;;;;19.04;37.54;98250.03;5032199;28;20132;-55
2022/05/28 11:54:10;;;;;;;2.83;1.52;;;;;;;18.95;38.17;98245.91;5032463;28;20076;-55
2022/05/28 11:56:36;;;;;;;11.90;1.63;;;;;;;18.75;37.52;98248.72;5032235;28;20507;-55